Corinne, UT

4:47 PM MST on February 12, 2016 (GMT -0700)
MesoWest | | Change Station
CLOSE
Current Station
Personal Weather Station
Location: Corinne, UT
Elevation: 4211 ft
Nearby Weather Stations

Elev 4211 ft 41.30 °N, 112.27 °W | Updated 32 minutes ago

Mostly Cloudy
Mostly Cloudy
27 °F
Feels Like 27 °F
N
3
Wind Variable Wind from North
Gusts 6.0 mph

Today
High -- | Low -- °F
--% Chance of Precip.
Yesterday
High -- | Low -- °F
Precip. -- in
Pressure 30.38 in
Visibility 3.0 miles
Clouds Overcast 700 ft
Windchill 27 °F
Dew Point 24 °F
Humidity 91%
Rainfall in
Snow Depth Not available.
7:28 AM 5:59 PM
Waxing Crescent, 24% visible
METAR KBMC 122335Z AUTO 00000KT 3SM OVC007 M02/M04 A3038 RMK AO1 T10251041
Pressure 30.38 in
Visibility 3.0 miles
Clouds Overcast 700 ft
Windchill 27 °F
Dew Point 24 °F
Humidity 91%
Rainfall in
Snow Depth Not available.
7:28 AM 5:59 PM
Waxing Crescent, 24% visible
METAR KBMC 122335Z AUTO 00000KT 3SM OVC007 M02/M04 A3038 RMK AO1 T10251041

10-Day Weather Forecast

Almanac

Astronomy

Feb. 12, 2016 Rise Set
Actual Time
Civil Twilight
Nautical Twilight
Astronomical Twilight
Moon
Length of Visible Light
Length of Day
Tomorrow will be .
, % of the Moon is Illuminated

Today's Extremes

State Highs State Lows

Community

WunderPhotos

Upload Photos

1,892,437 photos uploaded!

WunderBlog® & News

Nearby

Air Quality

  Air Quality AQ Index Pollutant
Not available.

Snow Depth

Station Depth Elevation

Earthquake Activity

City Distance Mag. Time & Date
Minimum magnitude displayed is 2.5.

Coastal Water Temperatures

Place Temperature

Stations

Nearby Weather Stations

Station Location Temp. Windchill Dew Point Humidity Wind Precip. Elev Updated Type
                   

Watches & Warnings

There are currently no watches in effect.